createdAt,value
2022-07-28T00:00:44.452Z,0.60
2022-07-28T00:03:11.354Z,0.73
2022-07-28T00:05:38.523Z,0.63
2022-07-28T00:08:05.462Z,1.13
2022-07-28T00:10:32.605Z,0.60
2022-07-28T00:13:02.208Z,0.70
2022-07-28T00:15:30.746Z,0.68
2022-07-28T00:17:57.584Z,0.80
2022-07-28T00:20:25.262Z,0.60
2022-07-28T00:22:52.011Z,0.75
2022-07-28T00:25:18.771Z,0.75
2022-07-28T00:27:45.542Z,0.80
2022-07-28T00:30:12.663Z,0.85
2022-07-28T00:32:39.641Z,0.60
2022-07-28T00:35:08.079Z,0.75
2022-07-28T00:37:35.627Z,0.70
2022-07-28T00:40:08.201Z,0.68
2022-07-28T00:42:34.959Z,0.70
2022-07-28T00:45:01.856Z,0.80
2022-07-28T00:47:33.878Z,0.82
2022-07-28T00:50:02.586Z,0.52
2022-07-28T00:52:29.713Z,0.70
2022-07-28T00:54:58.282Z,0.93
2022-07-28T00:57:25.235Z,0.70
2022-07-28T00:59:52.010Z,0.70
2022-07-28T01:02:19.103Z,0.70
2022-07-28T01:04:46.358Z,0.70
2022-07-28T01:07:37.930Z,0.80
2022-07-28T01:10:24.589Z,0.77
2022-07-28T01:15:33.268Z,0.70
2022-07-28T01:18:05.829Z,0.85
2022-07-28T01:20:47.904Z,0.60
2022-07-28T01:23:32.568Z,0.70
2022-07-28T01:26:17.312Z,0.88
2022-07-28T01:28:49.570Z,0.60
2022-07-28T01:31:24.440Z,0.82
2022-07-28T01:34:04.381Z,0.75
2022-07-28T01:36:44.999Z,0.63
2022-07-28T01:39:13.857Z,0.90
2022-07-28T01:41:43.533Z,0.70
2022-07-28T01:44:21.621Z,0.73
2022-07-28T01:46:54.461Z,0.80
2022-07-28T01:49:22.415Z,1.10
2022-07-28T01:51:51.525Z,0.70
2022-07-28T01:54:22.037Z,0.70
2022-07-28T01:56:51.263Z,0.90
2022-07-28T01:59:20.719Z,0.80
2022-07-28T02:01:50.851Z,0.60
2022-07-28T02:04:21.291Z,0.70
2022-07-28T02:06:49.704Z,0.93
2022-07-28T02:09:17.669Z,0.63
2022-07-28T02:11:49.958Z,0.90
2022-07-28T02:14:20.949Z,0.95
2022-07-28T02:16:51.579Z,0.80
2022-07-28T02:19:21.006Z,0.60
2022-07-28T02:21:50.414Z,0.73
2022-07-28T02:24:19.786Z,1.00
2022-07-28T02:26:53.556Z,0.88
2022-07-28T02:29:49.282Z,0.63
2022-07-28T02:32:27.168Z,0.65
2022-07-28T02:35:19.844Z,0.90
2022-07-28T02:37:59.265Z,0.80
2022-07-28T02:40:30.261Z,0.73
2022-07-28T02:42:58.710Z,0.68
2022-07-28T02:45:28.394Z,1.00
2022-07-28T02:48:00.146Z,0.90
2022-07-28T02:50:28.629Z,0.68
2022-07-28T02:53:15.632Z,1.00
2022-07-28T02:55:44.943Z,0.70
2022-07-28T02:58:12.582Z,0.90
2022-07-28T03:00:40.627Z,0.95
2022-07-28T03:03:09.551Z,0.85
2022-07-28T03:05:36.688Z,0.70
2022-07-28T03:08:03.546Z,1.13
2022-07-28T03:10:33.863Z,0.95
2022-07-28T03:13:03.205Z,0.75
2022-07-28T03:15:31.045Z,1.10
2022-07-28T03:17:58.630Z,0.93
2022-07-28T03:20:25.486Z,0.68
2022-07-28T03:22:52.330Z,0.95
2022-07-28T03:25:43.674Z,0.60
2022-07-28T03:28:15.044Z,1.00
2022-07-28T03:30:44.971Z,0.85
2022-07-28T03:33:11.917Z,0.70
2022-07-28T03:35:43.542Z,0.95
2022-07-28T03:38:22.606Z,0.80
2022-07-28T03:40:50.396Z,0.90
2022-07-28T03:43:21.436Z,0.70
2022-07-28T03:45:48.465Z,0.90
2022-07-28T03:48:15.783Z,0.82
2022-07-28T03:50:43.156Z,0.80
2022-07-28T03:53:19.567Z,0.93
2022-07-28T03:55:50.615Z,1.00
2022-07-28T03:58:21.595Z,1.00
2022-07-28T04:00:53.482Z,0.80
2022-07-28T04:03:22.585Z,0.90
2022-07-28T04:06:07.644Z,0.98
2022-07-28T04:08:35.380Z,1.20
2022-07-28T04:11:02.192Z,1.05
2022-07-28T04:13:28.962Z,0.90
2022-07-28T04:15:55.727Z,0.82
2022-07-28T04:18:22.457Z,1.00
2022-07-28T04:20:49.254Z,1.20
2022-07-28T04:23:16.001Z,1.10
2022-07-28T04:25:42.766Z,1.08
2022-07-28T04:28:09.554Z,1.00
2022-07-28T04:30:39.996Z,0.82
2022-07-28T04:33:11.235Z,1.00
2022-07-28T04:35:39.055Z,1.35
2022-07-28T04:38:05.905Z,1.00
2022-07-28T04:40:34.362Z,0.98
2022-07-28T04:43:01.292Z,1.20
2022-07-28T04:45:28.233Z,1.10
2022-07-28T04:47:55.021Z,1.20
2022-07-28T04:50:21.828Z,1.17
2022-07-28T04:52:57.600Z,0.90
2022-07-28T04:55:25.093Z,1.33
2022-07-28T04:57:51.859Z,0.90
2022-07-28T05:00:20.036Z,1.38
2022-07-28T05:02:49.680Z,1.20
2022-07-28T05:05:16.556Z,1.00
2022-07-28T05:07:43.590Z,1.00
2022-07-28T05:10:12.254Z,1.15
2022-07-28T05:12:39.605Z,0.93
2022-07-28T05:15:07.292Z,0.80
2022-07-28T05:17:34.274Z,1.00
2022-07-28T05:20:01.023Z,0.90
2022-07-28T05:22:43.649Z,0.80
2022-07-28T05:25:15.384Z,1.02
2022-07-28T05:27:42.133Z,0.88
2022-07-28T05:30:10.187Z,0.90
2022-07-28T05:32:37.188Z,0.60
2022-07-28T05:35:05.077Z,1.17
2022-07-28T05:37:36.234Z,1.00
2022-07-28T05:40:13.668Z,1.00
2022-07-28T05:42:42.549Z,1.00
2022-07-28T05:45:16.511Z,1.45
2022-07-28T05:47:49.152Z,0.70
2022-07-28T05:50:17.910Z,0.80
2022-07-28T05:52:45.350Z,0.77
2022-07-28T05:55:12.213Z,0.80
2022-07-28T05:57:40.242Z,0.70
2022-07-28T06:00:10.221Z,0.80
2022-07-28T06:02:41.012Z,0.70
2022-07-28T06:05:08.480Z,0.70
2022-07-28T06:07:43.110Z,0.60
2022-07-28T06:10:12.764Z,0.55
2022-07-28T06:12:44.669Z,0.60
2022-07-28T06:15:16.665Z,0.70
2022-07-28T06:17:43.641Z,0.68
2022-07-28T06:20:11.450Z,0.80
2022-07-28T06:22:46.140Z,0.68
2022-07-28T06:25:18.178Z,0.40
2022-07-28T06:27:49.514Z,0.55
2022-07-28T06:30:17.339Z,0.50
2022-07-28T06:32:45.610Z,0.52
2022-07-28T06:35:16.878Z,0.50
2022-07-28T06:37:48.237Z,0.52
2022-07-28T06:40:16.305Z,0.88
2022-07-28T06:42:43.737Z,0.40
2022-07-28T06:45:20.990Z,0.38
2022-07-28T06:47:49.442Z,0.57
2022-07-28T06:50:24.988Z,0.50
2022-07-28T06:52:54.554Z,0.40
2022-07-28T06:55:21.997Z,0.40
2022-07-28T06:57:49.230Z,0.65
2022-07-28T07:00:16.342Z,0.68
2022-07-28T07:02:43.337Z,0.40
2022-07-28T07:05:11.554Z,0.20
2022-07-28T07:07:42.821Z,0.43
2022-07-28T07:10:11.084Z,0.38
2022-07-28T07:12:38.240Z,0.80
2022-07-28T07:15:05.992Z,0.75
2022-07-28T07:17:32.863Z,0.38
2022-07-28T07:19:59.762Z,0.30
2022-07-28T07:22:26.552Z,0.40
2022-07-28T07:24:56.891Z,0.40
2022-07-28T07:27:23.946Z,0.40
2022-07-28T07:29:50.728Z,0.57
2022-07-28T07:32:17.432Z,0.55
2022-07-28T07:34:44.249Z,0.60
2022-07-28T07:37:13.627Z,0.20
2022-07-28T07:39:41.390Z,0.40
2022-07-28T07:42:08.629Z,0.40
2022-07-28T07:44:35.470Z,0.50
2022-07-28T07:47:02.465Z,0.82
2022-07-28T07:49:45.093Z,0.40
2022-07-28T07:52:13.299Z,0.30
2022-07-28T07:54:40.046Z,0.45
2022-07-28T07:57:06.795Z,0.30
2022-07-28T07:59:33.531Z,0.55
2022-07-28T08:02:01.102Z,0.40
2022-07-28T08:04:28.604Z,0.70
2022-07-28T08:06:55.738Z,0.75
2022-07-28T08:09:23.122Z,0.50
2022-07-28T08:11:49.954Z,0.30
2022-07-28T08:14:17.516Z,0.30
2022-07-28T08:16:44.487Z,0.30
2022-07-28T08:19:11.679Z,0.30
2022-07-28T08:21:38.741Z,0.20
2022-07-28T08:24:05.925Z,0.60
2022-07-28T08:26:32.846Z,0.35
2022-07-28T08:28:59.617Z,0.30
2022-07-28T08:31:26.472Z,0.32
2022-07-28T08:33:54.998Z,0.20
2022-07-28T08:36:22.341Z,0.50
2022-07-28T08:38:49.125Z,0.32
2022-07-28T08:41:38.558Z,0.55
2022-07-28T08:44:08.266Z,0.50
2022-07-28T08:46:38.606Z,0.57
2022-07-28T08:49:09.396Z,0.40
2022-07-28T08:51:38.526Z,0.30
2022-07-28T08:54:06.560Z,0.57
2022-07-28T08:56:35.321Z,0.10
2022-07-28T08:59:03.129Z,0.30
2022-07-28T09:01:38.808Z,0.88
2022-07-28T09:04:08.950Z,0.40
2022-07-28T09:06:41.893Z,0.30
2022-07-28T09:09:09.984Z,0.50
2022-07-28T09:11:39.910Z,0.52
2022-07-28T09:14:06.960Z,0.30
2022-07-28T09:16:33.980Z,0.20
2022-07-28T09:19:00.764Z,0.30
2022-07-28T09:21:27.838Z,0.32
2022-07-28T09:23:54.645Z,0.35
2022-07-28T09:26:21.410Z,0.40
2022-07-28T09:28:57.635Z,0.40
2022-07-28T09:34:05.668Z,0.40
2022-07-28T09:36:40.409Z,0.43
2022-07-28T09:39:07.683Z,0.40
2022-07-28T09:41:57.384Z,0.32
2022-07-28T09:44:26.275Z,0.80
2022-07-28T09:46:54.353Z,0.40
2022-07-28T09:49:26.558Z,0.40
2022-07-28T09:52:03.567Z,0.30
2022-07-28T09:54:30.492Z,0.30
2022-07-28T09:56:57.516Z,0.28
2022-07-28T09:59:24.732Z,0.38
2022-07-28T10:02:00.823Z,0.43
2022-07-28T10:04:42.010Z,0.30
2022-07-28T10:07:14.245Z,0.57
2022-07-28T10:09:41.804Z,0.60
2022-07-28T10:12:21.298Z,0.40
2022-07-28T10:14:53.477Z,0.32
2022-07-28T10:17:25.694Z,0.50
2022-07-28T10:19:54.688Z,0.43
2022-07-28T10:22:25.192Z,0.40
2022-07-28T10:24:53.725Z,0.30
2022-07-28T10:27:23.021Z,0.30
2022-07-28T10:29:56.758Z,0.35
2022-07-28T10:32:23.838Z,0.30
2022-07-28T10:35:02.766Z,0.40
2022-07-28T10:37:31.765Z,0.40
2022-07-28T10:40:10.755Z,0.40
2022-07-28T10:42:40.693Z,0.43
2022-07-28T10:45:12.586Z,0.28
2022-07-28T10:47:39.747Z,0.45
2022-07-28T10:50:08.586Z,0.40
2022-07-28T10:52:57.476Z,0.32
2022-07-28T10:55:50.345Z,0.30
2022-07-28T10:58:24.744Z,0.45
2022-07-28T11:00:56.618Z,0.75
2022-07-28T11:03:55.669Z,0.30
2022-07-28T11:06:40.197Z,0.40
2022-07-28T11:09:15.803Z,0.35
2022-07-28T11:11:42.502Z,0.35
2022-07-28T11:14:37.275Z,0.30
2022-07-28T11:17:04.719Z,0.35
2022-07-28T11:20:16.867Z,0.35
2022-07-28T11:22:33.645Z,0.40
2022-07-28T11:25:17.991Z,0.20
2022-07-28T11:27:49.757Z,0.20
2022-07-28T11:30:21.169Z,0.30
2022-07-28T11:32:50.835Z,0.20
2022-07-28T11:35:19.030Z,0.57
2022-07-28T11:38:00.842Z,0.40
2022-07-28T11:40:33.401Z,0.20
2022-07-28T11:43:36.257Z,0.32
2022-07-28T11:46:07.778Z,0.40
2022-07-28T11:48:39.470Z,0.80
2022-07-28T11:51:06.321Z,0.43
2022-07-28T11:53:46.006Z,0.40
2022-07-28T11:56:26.477Z,0.43
2022-07-28T11:59:01.287Z,0.32
2022-07-28T12:01:28.060Z,0.52
2022-07-28T12:03:59.842Z,0.82
2022-07-28T12:06:35.801Z,0.30
2022-07-28T12:09:04.917Z,0.22
2022-07-28T12:11:34.581Z,0.28
2022-07-28T12:14:03.793Z,0.40
2022-07-28T12:16:32.349Z,0.85
2022-07-28T12:19:02.349Z,0.25
2022-07-28T12:21:48.364Z,0.38
2022-07-28T12:24:16.545Z,0.30
2022-07-28T12:26:49.520Z,0.40
2022-07-28T12:29:19.560Z,0.30
2022-07-28T12:31:55.792Z,0.20
2022-07-28T12:34:24.293Z,0.30
2022-07-28T12:36:57.750Z,0.22
2022-07-28T12:39:26.005Z,0.22
2022-07-28T12:42:07.223Z,0.30
2022-07-28T12:44:35.308Z,0.30
2022-07-28T12:47:02.875Z,0.50
2022-07-28T12:49:29.807Z,0.40
2022-07-28T12:51:58.530Z,0.40
2022-07-28T12:54:36.738Z,0.35
2022-07-28T12:57:04.554Z,0.25
2022-07-28T12:59:36.334Z,0.30
2022-07-28T13:02:03.206Z,0.30
2022-07-28T13:04:48.061Z,0.32
2022-07-28T13:07:14.859Z,0.35
2022-07-28T13:09:51.383Z,0.50
2022-07-28T13:12:27.902Z,0.40
2022-07-28T13:14:57.913Z,0.22
2022-07-28T13:17:33.065Z,0.52
2022-07-28T13:20:10.208Z,0.50
2022-07-28T13:22:37.181Z,0.50
2022-07-28T13:25:04.250Z,0.40
2022-07-28T13:27:33.187Z,0.32
2022-07-28T13:30:00.706Z,0.38
2022-07-28T13:32:27.752Z,0.65
2022-07-28T13:34:55.290Z,0.30
2022-07-28T13:37:23.077Z,0.52
2022-07-28T13:39:54.379Z,0.30
2022-07-28T13:42:23.630Z,0.40
2022-07-28T13:44:51.036Z,0.55
2022-07-28T13:47:18.209Z,0.40
2022-07-28T13:49:45.410Z,0.17
2022-07-28T13:52:26.356Z,0.30
2022-07-28T13:54:59.813Z,0.30
2022-07-28T13:57:30.894Z,0.32
2022-07-28T13:59:57.666Z,0.40
2022-07-28T14:02:26.100Z,0.40
2022-07-28T14:04:54.281Z,0.47
2022-07-28T14:07:21.668Z,0.50
2022-07-28T14:09:50.608Z,0.40
2022-07-28T14:12:18.131Z,0.82
2022-07-28T14:14:48.214Z,0.35
2022-07-28T14:20:04.159Z,0.55
2022-07-28T14:22:31.097Z,0.50
2022-07-28T14:24:58.001Z,0.30
2022-07-28T14:27:29.135Z,0.50
2022-07-28T14:29:56.531Z,0.65
2022-07-28T14:32:23.407Z,0.60
2022-07-28T14:34:50.569Z,0.60
2022-07-28T14:37:17.829Z,0.50
2022-07-28T14:39:44.774Z,0.22
2022-07-28T14:42:11.570Z,0.20
2022-07-28T14:44:38.484Z,0.35
2022-07-28T14:47:07.284Z,0.30
2022-07-28T14:49:35.421Z,0.47
2022-07-28T14:52:02.962Z,0.30
2022-07-28T14:54:29.896Z,0.30
2022-07-28T14:56:57.056Z,0.40
2022-07-28T14:59:23.851Z,0.88
2022-07-28T15:01:50.695Z,0.82
2022-07-28T15:04:18.624Z,0.40
2022-07-28T15:06:46.072Z,0.50
2022-07-28T15:09:13.756Z,0.70
2022-07-28T15:11:41.900Z,0.30
2022-07-28T15:14:08.639Z,0.55
2022-07-28T15:16:35.912Z,0.47
2022-07-28T15:19:02.743Z,0.40
2022-07-28T15:21:34.371Z,0.40
2022-07-28T15:24:03.669Z,0.43
2022-07-28T15:26:30.641Z,0.40
2022-07-28T15:28:57.548Z,0.38
2022-07-28T15:31:27.191Z,0.30
2022-07-28T15:33:58.289Z,0.47
2022-07-28T15:36:25.728Z,0.30
2022-07-28T15:38:53.876Z,0.70
2022-07-28T15:41:20.810Z,0.47
2022-07-28T15:43:48.072Z,0.68
2022-07-28T15:46:15.034Z,0.30
2022-07-28T15:48:44.286Z,0.50
2022-07-28T15:51:11.801Z,0.30
2022-07-28T15:53:39.437Z,0.45
2022-07-28T15:56:06.335Z,0.38
2022-07-28T15:58:33.680Z,0.35
2022-07-28T16:01:01.636Z,0.45
2022-07-28T16:03:29.419Z,0.40
2022-07-28T16:05:56.568Z,0.30
2022-07-28T16:08:23.964Z,0.35
2022-07-28T16:10:53.108Z,0.60
2022-07-28T16:13:33.282Z,0.30
2022-07-28T16:16:07.505Z,0.40
2022-07-28T16:18:35.312Z,0.43
2022-07-28T16:21:02.343Z,0.47
2022-07-28T16:23:29.655Z,0.40
2022-07-28T16:25:56.611Z,0.38
2022-07-28T16:28:23.551Z,0.30
2022-07-28T16:30:50.457Z,0.40
2022-07-28T16:33:17.240Z,0.40
2022-07-28T16:35:44.557Z,0.63
2022-07-28T16:38:12.736Z,0.35
2022-07-28T16:40:40.760Z,0.40
2022-07-28T16:43:07.479Z,0.63
2022-07-28T16:45:35.403Z,0.30
2022-07-28T16:48:03.714Z,0.25
2022-07-28T16:50:31.909Z,0.40
2022-07-28T16:52:59.951Z,0.30
2022-07-28T16:55:26.943Z,0.40
2022-07-28T16:57:54.001Z,0.50
2022-07-28T17:00:21.439Z,0.52
2022-07-28T17:02:48.211Z,0.40
2022-07-28T17:05:15.003Z,0.40
2022-07-28T17:07:45.317Z,0.30
2022-07-28T17:10:14.732Z,0.38
2022-07-28T17:12:41.577Z,0.30
2022-07-28T17:15:19.960Z,0.68
2022-07-28T17:17:50.539Z,0.40
2022-07-28T17:20:17.646Z,0.30
2022-07-28T17:22:45.038Z,0.32
2022-07-28T17:25:42.998Z,0.30
2022-07-28T17:27:59.127Z,0.52
2022-07-28T17:30:26.091Z,0.40
2022-07-28T17:32:57.066Z,0.32
2022-07-28T17:35:34.328Z,0.60
2022-07-28T17:38:03.639Z,0.40
2022-07-28T17:40:30.819Z,0.55
2022-07-28T17:42:57.698Z,0.55
2022-07-28T17:45:24.607Z,0.30
2022-07-28T17:47:52.033Z,0.30
2022-07-28T17:50:19.354Z,0.50
2022-07-28T17:52:46.464Z,0.32
2022-07-28T17:55:37.212Z,0.68
2022-07-28T17:58:27.827Z,0.43
2022-07-28T18:00:58.026Z,0.47
2022-07-28T18:03:27.962Z,0.30
2022-07-28T18:05:55.287Z,0.40
2022-07-28T18:08:23.697Z,0.68
2022-07-28T18:10:50.862Z,0.52
2022-07-28T18:13:17.953Z,0.50
2022-07-28T18:15:44.809Z,0.60
2022-07-28T18:18:11.880Z,0.50
2022-07-28T18:20:39.613Z,0.32
2022-07-28T18:23:08.769Z,0.50
2022-07-28T18:25:36.713Z,0.80
2022-07-28T18:28:07.818Z,1.05
2022-07-28T18:30:35.083Z,0.38
2022-07-28T18:33:02.520Z,0.60
2022-07-28T18:35:29.997Z,0.55
2022-07-28T18:37:57.157Z,0.60
2022-07-28T18:40:24.603Z,0.50
2022-07-28T18:42:52.198Z,0.60
2022-07-28T18:45:19.197Z,0.45
2022-07-28T18:47:47.881Z,0.40
2022-07-28T18:50:30.435Z,0.50
2022-07-28T18:52:59.061Z,1.48
2022-07-28T18:55:25.926Z,0.40
2022-07-28T18:57:52.682Z,0.47
2022-07-28T19:00:19.531Z,0.40
2022-07-28T19:02:46.421Z,0.60
2022-07-28T19:05:13.613Z,0.60
2022-07-28T19:07:40.399Z,0.40
2022-07-28T19:10:07.764Z,0.40
2022-07-28T19:12:34.602Z,0.47
2022-07-28T19:15:01.782Z,0.60
2022-07-28T19:17:28.734Z,0.40
2022-07-28T19:19:56.273Z,0.50
2022-07-28T19:22:24.080Z,0.40
2022-07-28T19:24:52.450Z,0.50
2022-07-28T19:27:20.167Z,0.40
2022-07-28T19:29:47.190Z,0.40
2022-07-28T19:32:13.966Z,0.52
2022-07-28T19:34:42.953Z,0.50
2022-07-28T19:37:10.138Z,0.50
2022-07-28T19:39:45.991Z,0.40
2022-07-28T19:42:12.990Z,0.57
2022-07-28T19:44:39.995Z,0.40
2022-07-28T19:47:06.917Z,0.38
2022-07-28T19:49:33.675Z,0.47
2022-07-28T19:52:00.919Z,0.70
2022-07-28T19:54:28.672Z,0.47
2022-07-28T19:56:55.453Z,0.70
2022-07-28T19:59:22.505Z,0.57
2022-07-28T20:01:50.492Z,0.38
2022-07-28T20:04:18.164Z,0.50
2022-07-28T20:06:45.051Z,0.55
2022-07-28T20:09:12.620Z,0.60
2022-07-28T20:11:40.735Z,0.40
2022-07-28T20:14:07.740Z,0.45
2022-07-28T20:16:34.537Z,0.80
2022-07-28T20:19:01.336Z,0.30
2022-07-28T20:21:28.084Z,0.82
2022-07-28T20:23:58.358Z,0.60
2022-07-28T20:26:26.695Z,0.40
2022-07-28T20:28:55.220Z,0.70
2022-07-28T20:31:22.088Z,0.50
2022-07-28T20:33:49.094Z,0.60
2022-07-28T20:36:16.073Z,0.50
2022-07-28T20:38:42.785Z,0.20
2022-07-28T20:41:09.542Z,0.43
2022-07-28T20:43:37.525Z,0.35
2022-07-28T20:46:05.309Z,0.50
2022-07-28T20:48:32.268Z,0.50
2022-07-28T20:50:59.051Z,0.73
2022-07-28T20:53:25.784Z,0.70
2022-07-28T20:55:52.522Z,0.47
2022-07-28T20:58:19.265Z,0.50
2022-07-28T21:00:46.158Z,0.80
2022-07-28T21:03:12.937Z,0.40
2022-07-28T21:05:39.833Z,0.60
2022-07-28T21:08:09.123Z,0.60
2022-07-28T21:10:37.162Z,0.55
2022-07-28T21:13:03.958Z,0.60
2022-07-28T21:15:31.273Z,0.50
2022-07-28T21:17:59.016Z,0.40
2022-07-28T21:20:26.215Z,0.43
2022-07-28T21:22:53.026Z,0.65
2022-07-28T21:25:20.374Z,0.43
2022-07-28T21:28:05.765Z,0.60
2022-07-28T21:30:32.554Z,0.40
2022-07-28T21:32:59.331Z,0.73
2022-07-28T21:35:26.429Z,0.50
2022-07-28T21:37:53.182Z,0.38
2022-07-28T21:40:20.014Z,0.40
2022-07-28T21:42:47.389Z,0.75
2022-07-28T21:45:14.229Z,0.50
2022-07-28T21:47:41.660Z,0.70
2022-07-28T21:50:08.925Z,0.55
2022-07-28T21:52:36.798Z,0.43
2022-07-28T21:55:05.530Z,0.40
2022-07-28T21:57:32.397Z,0.60
2022-07-28T21:59:59.126Z,0.40
2022-07-28T22:02:25.939Z,0.50
2022-07-28T22:04:53.073Z,0.40
2022-07-28T22:07:19.968Z,0.65
2022-07-28T22:09:46.710Z,0.50
2022-07-28T22:12:13.466Z,0.40
2022-07-28T22:14:40.305Z,0.82
2022-07-28T22:17:07.061Z,0.40
2022-07-28T22:19:36.102Z,0.60
2022-07-28T22:22:03.252Z,0.52
2022-07-28T22:24:30.017Z,0.40
2022-07-28T22:26:56.854Z,0.52
2022-07-28T22:29:23.618Z,0.60
2022-07-28T22:31:51.920Z,0.65
2022-07-28T22:34:20.428Z,0.60
2022-07-28T22:36:47.147Z,0.55
2022-07-28T22:39:13.860Z,0.50
2022-07-28T22:41:40.673Z,0.60
2022-07-28T22:44:08.721Z,0.50
2022-07-28T22:46:35.546Z,0.50
2022-07-28T22:49:02.399Z,0.60
2022-07-28T22:51:29.321Z,0.65
2022-07-28T22:53:57.453Z,0.60
2022-07-28T22:56:24.289Z,0.70
2022-07-28T22:58:51.150Z,0.50
2022-07-28T23:01:18.057Z,0.60
2022-07-28T23:03:45.690Z,0.50
2022-07-28T23:06:14.199Z,0.47
2022-07-28T23:08:41.024Z,0.60
2022-07-28T23:11:07.888Z,0.75
2022-07-28T23:13:34.679Z,0.60
2022-07-28T23:16:01.558Z,0.43
2022-07-28T23:18:28.334Z,0.52
2022-07-28T23:20:55.136Z,0.75
2022-07-28T23:23:22.028Z,0.52
2022-07-28T23:25:48.806Z,0.63
2022-07-28T23:28:15.561Z,0.73
2022-07-28T23:30:42.336Z,0.68
2022-07-28T23:33:09.184Z,0.45
2022-07-28T23:35:56.332Z,1.17
2022-07-28T23:38:23.083Z,0.70
2022-07-28T23:40:49.807Z,0.77
2022-07-28T23:43:16.633Z,0.50
2022-07-28T23:45:43.344Z,0.68
2022-07-28T23:48:10.149Z,0.60
2022-07-28T23:50:36.913Z,0.70
2022-07-28T23:53:03.693Z,0.50
2022-07-28T23:55:30.518Z,0.80
2022-07-28T23:57:57.276Z,0.60
